There are no active watches, warnings or advisories for Caledonia (Vermont).

Nearby METAR Reports

 

KCDA - Lyndonville, Vermont, USA
Distance from station: ENE 11mi, 18km
Updated: Sat, 19-Aug-2017 3:15am EDT
Mist, Overcast
Mist, Overcast
 Wind from calm
Wind: Calm
Temperature: 63°F , 17°C
Dew Point: 63°F , 17°C
Humidity: 100%
Barometer: 29.81 inHg , 1009.5 hPa
Summary: Mist
Clouds: Overcast
Visibility: 4 miles , 6 km
Cloud details: Mostly cloudy 200 ft
Overcast 700 ft
2017/08/19 07:15 KCDA 190715Z AUTO 00000KT 4SM BR BKN002 OVC007 17/17 A2981 RMK AO2 T01700165
K1V4 - St. Johnsbury, Vermont, USA
Distance from station: ESE 12mi, 19km
Updated: Sat, 19-Aug-2017 2:54am EDT

 
Temperature: 64°F , 18°C
Dew Point: 64°F , 18°C
Humidity: 100%
Barometer: 29.77 inHg , 1008.1 hPa
2017/08/19 06:54 K1V4 190654Z AUTO 18/18 A2977 RMK AO1 SLP073 T01780178
 
KMVL - Morrisville, Vermont, USA
Distance from station: W 20mi, 31km
Updated: Sat, 19-Aug-2017 3:11am EDT
Overcast
Overcast
 Wind from calm
Wind: Calm
Temperature: 64°F , 18°C
Dew Point: 64°F , 18°C
Humidity: 100%
Barometer: 29.78 inHg , 1008.5 hPa
Clouds: Overcast
Visibility: 10 miles , 16 km
Cloud details: Mostly cloudy 500 ft
Overcast 1000 ft
2017/08/19 07:11 KMVL 190711Z AUTO 00000KT 10SM BKN005 OVC010 18/18 A2978 RMK AO2 T01830178
KEFK - Newport State, Vermont, USA
Distance from station: N 26mi, 42km
Updated: Sat, 19-Aug-2017 3:15am EDT
Overcast
Overcast
 Wind from SSE
Wind: SSE 6 mph , 9 km/h
Temperature: 64°F , 18°C
Dew Point: 64°F , 18°C
Humidity: 100%
Barometer: 29.77 inHg , 1008.1 hPa
Clouds: Overcast
Visibility: 10 miles , 16 km
Cloud details: Overcast 700 ft
2017/08/19 07:15 KEFK 190715Z AUTO 16005KT 10SM OVC007 18/18 A2977 RMK AO2 T01800175
 
KMPV - Montpelier/Barre, Vermont, USA
Distance from station: SW 27mi, 44km
Updated: Sat, 19-Aug-2017 3:18am EDT
Mist, Overcast
Mist, Overcast
 Wind from calm
Wind: Calm
Temperature: 64°F , 18°C
Dew Point: 64°F , 18°C
Humidity: 100%
Barometer: 29.82 inHg , 1009.8 hPa
Summary: Mist
Clouds: Overcast
Visibility: 1 mile , 2 km
Cloud details: Mostly cloudy 200 ft
Mostly cloudy 6000 ft
Overcast 8000 ft
2017/08/19 07:18 KMPV 190718Z AUTO 00000KT 1SM BR BKN002 BKN060 OVC080 18/18 A2982 RMK AO2 T01780178
KHIE - Whitefield, New Hampshire, USA
Distance from station: ESE 34mi, 55km
Updated: Sat, 19-Aug-2017 2:52am EDT
Overcast
Overcast
 Wind from E
Wind: E 3 mph , 6 km/h
Temperature: 61°F , 16°C
Dew Point: 57°F , 14°C
Humidity: 88%
Barometer: 29.80 inHg , 1009.1 hPa
Clouds: Overcast
Visibility: 10 miles , 16 km
Cloud details: Overcast 2000 ft
2017/08/19 06:52 KHIE 190652Z AUTO 08003KT 10SM OVC020 16/14 A2980 RMK AO2 SLP089 T01610144
 
KBTV - Burlington, Vermont, USA
Distance from station: W 46mi, 74km
Updated: Sat, 19-Aug-2017 2:54am EDT
Overcast
Overcast
 Wind from calm
Wind: Calm
Temperature: 70°F , 21°C
Dew Point: 68°F , 20°C
Humidity: 94%
Barometer: 29.73 inHg , 1006.8 hPa
Clouds: Overcast
Visibility: 10 miles , 16 km
Cloud details: Overcast 7000 ft
2017/08/19 06:54 KBTV 190654Z 00000KT 10SM OVC070 21/20 A2973 RMK AO2 SLP067 T02110200
CWFQ - Frelighsburg, Quebec, Canada
Distance from station: NW 47mi, 75km
Updated: Sat, 19-Aug-2017 3:00am EDT

 Wind from SSE
Wind: SSE 3 mph , 6 km/h
Temperature: 66°F , 19°C
Dew Point: 66°F , 19°C
Humidity: 100%
2017/08/19 07:00 CWFQ 190700Z AUTO 16003KT 19/19 RMK AO1 SLP064 T01890189 56013
 
KMWN - Mount Washington, New Hampshire, USA
Distance from station: ESE 49mi, 79km
Updated: Sat, 19-Aug-2017 2:57am EDT
Fog, Overcast
Fog, Overcast
 Wind from W
Wind: W 26 mph , 43 km/h, Gust: 35 mph , 56 km/h
Temperature: 54°F , 12°C
Dew Point: 54°F , 12°C
Humidity: 100%
Summary: Fog
Clouds: Overcast
Visibility: 0 miles , 0 km
Cloud details: Overcast 0 ft
2017/08/19 06:57 KMWN 190657Z 28023G30KT 0SM FG VV000 12/12 RMK
KBML - Berlin, New Hampshire, USA
Distance from station: E 51mi, 83km
Updated: Sat, 19-Aug-2017 2:52am EDT
Overcast
Overcast
 Wind from calm
Wind: Calm
Temperature: 61°F , 16°C
Dew Point: 57°F , 14°C
Humidity: 88%
Barometer: 29.83 inHg , 1010.2 hPa
Clouds: Overcast
Visibility: 10 miles , 16 km
Cloud details: Overcast 500 ft
2017/08/19 06:52 KBML 190652Z AUTO 00000KT 10SM OVC005 16/14 A2983 RMK AO2 SLP099 T01610139
 
KFSO - Highgate, Vermont, USA
Distance from station: NW 52mi, 84km
Updated: Sat, 19-Aug-2017 3:15am EDT
Overcast
Overcast
 Wind from S
Wind: S 3 mph , 6 km/h
Temperature: 68°F , 20°C
Dew Point: 68°F , 20°C
Humidity: 100%
Barometer: 29.72 inHg , 1006.4 hPa
Clouds: Overcast
Visibility: 10 miles , 16 km
Cloud details: Overcast 9000 ft
2017/08/19 07:15 KFSO 190715Z AUTO 17003KT 10SM OVC090 20/20 A2972 RMK AO2 T01970197
CWTT - Lac Memphremagog, Quebec, Canada
Distance from station: N 53mi, 85km
Updated: Sat, 19-Aug-2017 3:00am EDT

 Wind from SW
Wind: SW 3 mph , 6 km/h
Temperature: 68°F , 20°C
Dew Point: 64°F , 18°C
Humidity: 88%
2017/08/19 07:00 CWTT 190700Z AUTO 22003KT 20/18 RMK AO1 T01980175
 
K1P1 - Plymouth, New Hampshire, USA
Distance from station: SSE 55mi, 88km
Updated: Sat, 19-Aug-2017 3:35am EDT
Overcast
Overcast
 Wind from calm
Wind: Calm
Temperature: 61°F , 16°C
Dew Point: 61°F , 16°C
Humidity: 100%
Barometer: 29.79 inHg , 1008.8 hPa
Clouds: Overcast
Visibility: 7 miles , 11 km
Cloud details: Partly cloudy 100 ft
Mostly cloudy 800 ft
Overcast 1300 ft
2017/08/19 07:35 K1P1 190735Z AUTO 00000KT 7SM SCT001 BKN008 OVC013 16/16 A2979 RMK AO2 T01610155
KLEB - Lebanon, New Hampshire, USA
Distance from station: S 60mi, 97km
Updated: Sat, 19-Aug-2017 3:26am EDT
Mist, Overcast
Mist, Overcast
 Wind from ENE
Wind: ENE 3 mph , 6 km/h
Temperature: 64°F , 18°C
Dew Point: 64°F , 18°C
Humidity: 100%
Barometer: 29.78 inHg , 1008.5 hPa
Summary: Mist
Clouds: Overcast
Visibility: 1 3/4 miles , 5 km
Cloud details: Overcast 100 ft
2017/08/19 07:26 KLEB 190726Z AUTO 07003KT 1 3/4SM BR OVC001 18/18 A2978 RMK AO2 T01830178
 
KPBG - Plattsburgh Afb, New York, USA
Distance from station: W 62mi, 100km
Updated: Sat, 19-Aug-2017 2:53am EDT
Overcast
Overcast
 Wind from S
Wind: S 5 mph , 7 km/h
Temperature: 70°F , 21°C
Dew Point: 66°F , 19°C
Humidity: 88%
Barometer: 29.72 inHg , 1006.4 hPa
Clouds: Overcast
Visibility: 8 miles , 13 km
Cloud details: Overcast 8000 ft
2017/08/19 06:53 KPBG 190653Z AUTO 17004KT 8SM OVC080 21/19 A2972 RMK AO2 SLP064 T02060194
CWQH - Lennoxville, Quebec, Canada
Distance from station: NNE 63mi, 101km
Updated: Sat, 19-Aug-2017 3:00am EDT

 Wind from ENE
Wind: ENE 2 mph , 4 km/h
Temperature: 64°F , 18°C
Dew Point: 61°F , 16°C
Humidity: 88%
2017/08/19 07:00 CWQH 190700Z AUTO 06002KT 18/16 RMK AO1 T01750164
 
CMGB - Granby, Quebec, Canada
Distance from station: NNW 65mi, 105km
Updated: Sat, 19-Aug-2017 3:15am EDT

 Wind from SSW
Wind: SSW 1 mph , 2 km/h
Temperature: 66°F , 19°C
Dew Point: 64°F , 18°C
Humidity: 94%
2017/08/19 07:15 CMGB 190715Z AUTO 21001KT 19/18 RMK AO1 SLP059 T01910181 55004
CYSC - Sherbrooke, Quebec, Canada
Distance from station: NNE 69mi, 112km
Updated: Sat, 19-Aug-2017 3:19am EDT
Overcast
Overcast
 Wind from E
Wind: E 6 mph , 9 km/h
Temperature: 63°F , 17°C
Dew Point: 61°F , 16°C
Humidity: 94%
Barometer: 29.75 inHg , 1007.5 hPa
Clouds: Overcast
Visibility: 9 miles , 14 km
Cloud details: Mostly cloudy 1600 ft
Overcast 6500 ft
2017/08/19 07:19 CYSC 190719Z AUTO 08005KT 9SM BKN016 OVC065 17/16 A2975 RMK SLP075 DENSITY ALT 1300FT
 
KIZG - Fryeburg, Maine, USA
Distance from station: ESE 72mi, 117km
Updated: Sat, 19-Aug-2017 2:54am EDT
Overcast
Overcast
 Wind from calm
Wind: Calm
Temperature: 61°F , 16°C
Dew Point: 61°F , 16°C
Humidity: 100%
Barometer: 29.81 inHg , 1009.5 hPa
Clouds: Overcast
Visibility: 10 miles , 16 km
Cloud details: Overcast 1300 ft
2017/08/19 06:54 KIZG 190654Z AUTO 00000KT 10SM OVC013 16/16 A2981 RMK AO2 SLP096 T01560156